sensor_id;sensor_type;location;lat;lon;timestamp;P1;durP1;ratioP1;P2;durP2;ratioP2
5612;SDS011;63463;53.586;9.928;2023-11-21T00:01:01;26.93;;;12.57;;
5612;SDS011;63463;53.586;9.928;2023-11-21T00:03:28;35.33;;;13.63;;
5612;SDS011;63463;53.586;9.928;2023-11-21T00:05:54;36.47;;;14.90;;
5612;SDS011;63463;53.586;9.928;2023-11-21T00:08:20;24.77;;;12.10;;
5612;SDS011;63463;53.586;9.928;2023-11-21T00:10:46;34.77;;;13.33;;
5612;SDS011;63463;53.586;9.928;2023-11-21T00:13:13;27.00;;;13.03;;
5612;SDS011;63463;53.586;9.928;2023-11-21T00:15:39;29.43;;;13.73;;
5612;SDS011;63463;53.586;9.928;2023-11-21T00:18:05;34.90;;;14.70;;
5612;SDS011;63463;53.586;9.928;2023-11-21T00:20:31;33.30;;;15.40;;
5612;SDS011;63463;53.586;9.928;2023-11-21T00:22:57;36.20;;;16.13;;
5612;SDS011;63463;53.586;9.928;2023-11-21T00:25:24;32.27;;;15.30;;
5612;SDS011;63463;53.586;9.928;2023-11-21T00:27:50;31.37;;;14.40;;
5612;SDS011;63463;53.586;9.928;2023-11-21T00:30:16;39.27;;;15.63;;
5612;SDS011;63463;53.586;9.928;2023-11-21T00:32:42;35.63;;;16.97;;
5612;SDS011;63463;53.586;9.928;2023-11-21T00:35:08;39.23;;;17.70;;
5612;SDS011;63463;53.586;9.928;2023-11-21T00:37:35;43.73;;;17.60;;
5612;SDS011;63463;53.586;9.928;2023-11-21T00:40:01;49.50;;;18.87;;
5612;SDS011;63463;53.586;9.928;2023-11-21T00:42:30;45.57;;;19.00;;
5612;SDS011;63463;53.586;9.928;2023-11-21T00:44:58;55.63;;;18.80;;
5612;SDS011;63463;53.586;9.928;2023-11-21T00:47:24;34.43;;;17.37;;
5612;SDS011;63463;53.586;9.928;2023-11-21T00:49:50;53.03;;;17.80;;
5612;SDS011;63463;53.586;9.928;2023-11-21T00:52:17;35.83;;;18.00;;
5612;SDS011;63463;53.586;9.928;2023-11-21T00:54:43;31.30;;;13.47;;
5612;SDS011;63463;53.586;9.928;2023-11-21T00:57:09;29.00;;;13.00;;
5612;SDS011;63463;53.586;9.928;2023-11-21T00:59:36;29.70;;;13.07;;
5612;SDS011;63463;53.586;9.928;2023-11-21T01:02:02;30.80;;;12.97;;
5612;SDS011;63463;53.586;9.928;2023-11-21T01:04:30;30.40;;;13.80;;
5612;SDS011;63463;53.586;9.928;2023-11-21T01:06:57;30.87;;;14.87;;
5612;SDS011;63463;53.586;9.928;2023-11-21T01:09:23;32.27;;;14.87;;
5612;SDS011;63463;53.586;9.928;2023-11-21T01:11:49;34.23;;;14.03;;
5612;SDS011;63463;53.586;9.928;2023-11-21T01:14:16;51.93;;;14.70;;
5612;SDS011;63463;53.586;9.928;2023-11-21T01:16:42;35.20;;;14.90;;
5612;SDS011;63463;53.586;9.928;2023-11-21T01:19:08;30.40;;;15.57;;
5612;SDS011;63463;53.586;9.928;2023-11-21T01:21:34;34.40;;;15.23;;
5612;SDS011;63463;53.586;9.928;2023-11-21T01:24:00;32.27;;;14.93;;
5612;SDS011;63463;53.586;9.928;2023-11-21T01:26:27;23.20;;;13.53;;
5612;SDS011;63463;53.586;9.928;2023-11-21T01:28:53;41.10;;;15.40;;
5612;SDS011;63463;53.586;9.928;2023-11-21T01:31:19;36.67;;;15.40;;
5612;SDS011;63463;53.586;9.928;2023-11-21T01:33:45;39.50;;;15.87;;
5612;SDS011;63463;53.586;9.928;2023-11-21T01:36:11;34.73;;;15.10;;
5612;SDS011;63463;53.586;9.928;2023-11-21T01:38:37;34.43;;;14.63;;
5612;SDS011;63463;53.586;9.928;2023-11-21T01:41:03;33.10;;;15.27;;
5612;SDS011;63463;53.586;9.928;2023-11-21T01:43:31;33.00;;;15.60;;
5612;SDS011;63463;53.586;9.928;2023-11-21T01:45:57;34.80;;;15.40;;
5612;SDS011;63463;53.586;9.928;2023-11-21T01:48:24;33.60;;;15.50;;
5612;SDS011;63463;53.586;9.928;2023-11-21T01:50:50;33.73;;;14.83;;
5612;SDS011;63463;53.586;9.928;2023-11-21T01:53:17;30.70;;;14.20;;
5612;SDS011;63463;53.586;9.928;2023-11-21T01:55:43;26.53;;;12.67;;
5612;SDS011;63463;53.586;9.928;2023-11-21T01:58:10;27.20;;;13.90;;
5612;SDS011;63463;53.586;9.928;2023-11-21T02:03:40;26.13;;;13.77;;
5612;SDS011;63463;53.586;9.928;2023-11-21T02:06:07;23.40;;;12.30;;
5612;SDS011;63463;53.586;9.928;2023-11-21T02:08:33;24.20;;;13.60;;
5612;SDS011;63463;53.586;9.928;2023-11-21T02:10:59;25.53;;;12.87;;
5612;SDS011;63463;53.586;9.928;2023-11-21T02:13:25;22.87;;;12.70;;
5612;SDS011;63463;53.586;9.928;2023-11-21T02:15:51;21.47;;;12.10;;
5612;SDS011;63463;53.586;9.928;2023-11-21T02:18:19;17.80;;;10.83;;
5612;SDS011;63463;53.586;9.928;2023-11-21T02:20:47;21.67;;;13.03;;
5612;SDS011;63463;53.586;9.928;2023-11-21T02:23:12;20.10;;;11.13;;
5612;SDS011;63463;53.586;9.928;2023-11-21T02:25:39;21.83;;;11.47;;
5612;SDS011;63463;53.586;9.928;2023-11-21T02:28:07;20.23;;;11.70;;
5612;SDS011;63463;53.586;9.928;2023-11-21T02:30:33;16.13;;;10.77;;
5612;SDS011;63463;53.586;9.928;2023-11-21T02:33:01;18.67;;;10.80;;
5612;SDS011;63463;53.586;9.928;2023-11-21T02:35:27;18.23;;;11.57;;
5612;SDS011;63463;53.586;9.928;2023-11-21T02:37:53;22.00;;;11.20;;
5612;SDS011;63463;53.586;9.928;2023-11-21T02:40:19;18.07;;;11.27;;
5612;SDS011;63463;53.586;9.928;2023-11-21T02:42:49;20.03;;;11.20;;
5612;SDS011;63463;53.586;9.928;2023-11-21T02:45:16;20.07;;;11.37;;
5612;SDS011;63463;53.586;9.928;2023-11-21T02:47:42;15.70;;;10.07;;
5612;SDS011;63463;53.586;9.928;2023-11-21T02:50:08;18.70;;;10.40;;
5612;SDS011;63463;53.586;9.928;2023-11-21T02:52:37;17.80;;;10.97;;
5612;SDS011;63463;53.586;9.928;2023-11-21T02:55:05;21.10;;;9.60;;
5612;SDS011;63463;53.586;9.928;2023-11-21T02:57:32;19.07;;;11.03;;
5612;SDS011;63463;53.586;9.928;2023-11-21T02:59:58;15.30;;;10.20;;
5612;SDS011;63463;53.586;9.928;2023-11-21T03:02:24;20.37;;;12.03;;
5612;SDS011;63463;53.586;9.928;2023-11-21T03:04:50;20.27;;;10.70;;
5612;SDS011;63463;53.586;9.928;2023-11-21T03:07:16;19.00;;;10.83;;
5612;SDS011;63463;53.586;9.928;2023-11-21T03:09:46;17.53;;;9.90;;
5612;SDS011;63463;53.586;9.928;2023-11-21T03:12:12;22.27;;;10.87;;
5612;SDS011;63463;53.586;9.928;2023-11-21T03:14:39;18.63;;;10.97;;
5612;SDS011;63463;53.586;9.928;2023-11-21T03:17:05;14.77;;;9.87;;
5612;SDS011;63463;53.586;9.928;2023-11-21T03:19:31;17.13;;;10.97;;
5612;SDS011;63463;53.586;9.928;2023-11-21T03:21:57;17.33;;;10.50;;
5612;SDS011;63463;53.586;9.928;2023-11-21T03:24:23;18.33;;;10.00;;
5612;SDS011;63463;53.586;9.928;2023-11-21T03:26:49;20.87;;;10.90;;
5612;SDS011;63463;53.586;9.928;2023-11-21T03:29:16;17.13;;;10.63;;
5612;SDS011;63463;53.586;9.928;2023-11-21T03:31:42;18.57;;;11.43;;
5612;SDS011;63463;53.586;9.928;2023-11-21T03:34:10;15.00;;;10.27;;
5612;SDS011;63463;53.586;9.928;2023-11-21T03:36:36;19.50;;;10.87;;
5612;SDS011;63463;53.586;9.928;2023-11-21T03:39:02;16.63;;;10.60;;
5612;SDS011;63463;53.586;9.928;2023-11-21T03:41:28;16.30;;;10.67;;
5612;SDS011;63463;53.586;9.928;2023-11-21T03:43:54;16.87;;;10.43;;
5612;SDS011;63463;53.586;9.928;2023-11-21T03:46:19;12.97;;;9.63;;
5612;SDS011;63463;53.586;9.928;2023-11-21T03:48:45;16.63;;;10.70;;
5612;SDS011;63463;53.586;9.928;2023-11-21T03:51:11;18.87;;;10.90;;
5612;SDS011;63463;53.586;9.928;2023-11-21T03:53:37;20.67;;;12.07;;
5612;SDS011;63463;53.586;9.928;2023-11-21T03:56:03;16.37;;;11.27;;
5612;SDS011;63463;53.586;9.928;2023-11-21T03:58:30;25.20;;;11.57;;
5612;SDS011;63463;53.586;9.928;2023-11-21T04:00:56;24.73;;;11.70;;
5612;SDS011;63463;53.586;9.928;2023-11-21T04:03:22;26.40;;;11.40;;
5612;SDS011;63463;53.586;9.928;2023-11-21T04:05:48;20.10;;;11.67;;
5612;SDS011;63463;53.586;9.928;2023-11-21T04:08:14;17.43;;;11.23;;
5612;SDS011;63463;53.586;9.928;2023-11-21T04:10:39;19.80;;;11.60;;
5612;SDS011;63463;53.586;9.928;2023-11-21T04:13:07;19.20;;;11.07;;
5612;SDS011;63463;53.586;9.928;2023-11-21T04:15:33;20.93;;;11.33;;
5612;SDS011;63463;53.586;9.928;2023-11-21T04:17:58;23.90;;;11.43;;
5612;SDS011;63463;53.586;9.928;2023-11-21T04:20:24;24.47;;;12.77;;
5612;SDS011;63463;53.586;9.928;2023-11-21T04:22:50;19.30;;;11.80;;
5612;SDS011;63463;53.586;9.928;2023-11-21T04:25:16;18.80;;;10.70;;
5612;SDS011;63463;53.586;9.928;2023-11-21T04:27:43;18.40;;;11.30;;
5612;SDS011;63463;53.586;9.928;2023-11-21T04:30:10;21.93;;;11.87;;
5612;SDS011;63463;53.586;9.928;2023-11-21T04:32:36;18.50;;;11.40;;
5612;SDS011;63463;53.586;9.928;2023-11-21T04:35:02;25.37;;;11.97;;
5612;SDS011;63463;53.586;9.928;2023-11-21T04:37:29;20.67;;;12.40;;
5612;SDS011;63463;53.586;9.928;2023-11-21T04:39:55;19.17;;;12.43;;
5612;SDS011;63463;53.586;9.928;2023-11-21T04:42:21;20.00;;;11.50;;
5612;SDS011;63463;53.586;9.928;2023-11-21T04:44:47;21.43;;;12.67;;
5612;SDS011;63463;53.586;9.928;2023-11-21T04:47:13;19.80;;;11.80;;
5612;SDS011;63463;53.586;9.928;2023-11-21T04:49:42;21.00;;;11.10;;
5612;SDS011;63463;53.586;9.928;2023-11-21T04:52:08;22.53;;;12.17;;
5612;SDS011;63463;53.586;9.928;2023-11-21T04:54:35;17.23;;;12.00;;
5612;SDS011;63463;53.586;9.928;2023-11-21T04:57:01;20.43;;;11.63;;
5612;SDS011;63463;53.586;9.928;2023-11-21T04:59:27;26.80;;;13.17;;
5612;SDS011;63463;53.586;9.928;2023-11-21T05:01:53;20.73;;;12.20;;
5612;SDS011;63463;53.586;9.928;2023-11-21T05:04:20;21.27;;;11.93;;
5612;SDS011;63463;53.586;9.928;2023-11-21T05:06:49;20.30;;;12.00;;
5612;SDS011;63463;53.586;9.928;2023-11-21T05:09:14;21.57;;;11.60;;
5612;SDS011;63463;53.586;9.928;2023-11-21T05:11:41;17.60;;;12.00;;
5612;SDS011;63463;53.586;9.928;2023-11-21T05:14:07;20.13;;;11.73;;
5612;SDS011;63463;53.586;9.928;2023-11-21T05:16:33;21.20;;;11.90;;
5612;SDS011;63463;53.586;9.928;2023-11-21T05:19:00;23.87;;;12.57;;
5612;SDS011;63463;53.586;9.928;2023-11-21T05:21:29;18.57;;;11.00;;
5612;SDS011;63463;53.586;9.928;2023-11-21T05:23:57;24.30;;;12.83;;
5612;SDS011;63463;53.586;9.928;2023-11-21T05:26:23;21.70;;;11.70;;
5612;SDS011;63463;53.586;9.928;2023-11-21T05:28:49;18.83;;;12.13;;
5612;SDS011;63463;53.586;9.928;2023-11-21T05:31:15;26.30;;;12.10;;
5612;SDS011;63463;53.586;9.928;2023-11-21T05:33:41;16.83;;;10.70;;
5612;SDS011;63463;53.586;9.928;2023-11-21T05:36:07;27.90;;;12.83;;
5612;SDS011;63463;53.586;9.928;2023-11-21T05:38:35;20.33;;;11.57;;
5612;SDS011;63463;53.586;9.928;2023-11-21T05:41:01;19.73;;;12.37;;
5612;SDS011;63463;53.586;9.928;2023-11-21T05:43:27;21.70;;;12.13;;
5612;SDS011;63463;53.586;9.928;2023-11-21T05:45:55;26.17;;;13.18;;
5612;SDS011;63463;53.586;9.928;2023-11-21T05:48:21;22.23;;;12.10;;
5612;SDS011;63463;53.586;9.928;2023-11-21T05:50:48;24.47;;;13.07;;
5612;SDS011;63463;53.586;9.928;2023-11-21T05:53:17;18.00;;;12.03;;
5612;SDS011;63463;53.586;9.928;2023-11-21T05:55:43;18.53;;;12.03;;
5612;SDS011;63463;53.586;9.928;2023-11-21T05:58:09;16.13;;;11.53;;
5612;SDS011;63463;53.586;9.928;2023-11-21T06:00:35;16.83;;;11.43;;
5612;SDS011;63463;53.586;9.928;2023-11-21T06:03:01;23.33;;;12.40;;
5612;SDS011;63463;53.586;9.928;2023-11-21T06:05:28;20.77;;;11.30;;
5612;SDS011;63463;53.586;9.928;2023-11-21T06:07:55;20.00;;;11.30;;
5612;SDS011;63463;53.586;9.928;2023-11-21T06:10:25;18.40;;;11.50;;
5612;SDS011;63463;53.586;9.928;2023-11-21T06:12:53;20.60;;;12.13;;
5612;SDS011;63463;53.586;9.928;2023-11-21T06:15:19;19.63;;;11.70;;
5612;SDS011;63463;53.586;9.928;2023-11-21T06:17:47;19.37;;;12.10;;
5612;SDS011;63463;53.586;9.928;2023-11-21T06:20:17;23.63;;;13.03;;
5612;SDS011;63463;53.586;9.928;2023-11-21T06:25:37;25.50;;;14.93;;
5612;SDS011;63463;53.586;9.928;2023-11-21T06:28:04;23.37;;;13.40;;
5612;SDS011;63463;53.586;9.928;2023-11-21T06:30:30;23.87;;;13.10;;
5612;SDS011;63463;53.586;9.928;2023-11-21T06:32:56;21.55;;;12.85;;
5612;SDS011;63463;53.586;9.928;2023-11-21T06:35:22;25.33;;;12.40;;
5612;SDS011;63463;53.586;9.928;2023-11-21T06:37:48;19.97;;;13.33;;
5612;SDS011;63463;53.586;9.928;2023-11-21T06:40:14;21.10;;;13.33;;
5612;SDS011;63463;53.586;9.928;2023-11-21T06:42:40;21.07;;;13.23;;
5612;SDS011;63463;53.586;9.928;2023-11-21T06:45:07;27.77;;;12.53;;
5612;SDS011;63463;53.586;9.928;2023-11-21T06:47:35;22.77;;;14.20;;
5612;SDS011;63463;53.586;9.928;2023-11-21T06:50:01;17.90;;;12.30;;
5612;SDS011;63463;53.586;9.928;2023-11-21T06:52:27;26.80;;;12.67;;
5612;SDS011;63463;53.586;9.928;2023-11-21T06:54:53;16.50;;;11.33;;
5612;SDS011;63463;53.586;9.928;2023-11-21T06:57:19;23.27;;;12.37;;
5612;SDS011;63463;53.586;9.928;2023-11-21T06:59:45;20.33;;;12.23;;
5612;SDS011;63463;53.586;9.928;2023-11-21T07:02:11;21.10;;;12.03;;
5612;SDS011;63463;53.586;9.928;2023-11-21T07:04:37;26.17;;;12.23;;
5612;SDS011;63463;53.586;9.928;2023-11-21T07:07:03;19.53;;;12.27;;
5612;SDS011;63463;53.586;9.928;2023-11-21T07:09:31;16.37;;;11.40;;
5612;SDS011;63463;53.586;9.928;2023-11-21T07:11:57;22.20;;;11.90;;
5612;SDS011;63463;53.586;9.928;2023-11-21T07:14:23;21.43;;;11.80;;
5612;SDS011;63463;53.586;9.928;2023-11-21T07:16:49;20.73;;;11.70;;
5612;SDS011;63463;53.586;9.928;2023-11-21T07:19:17;20.97;;;11.40;;
5612;SDS011;63463;53.586;9.928;2023-11-21T07:21:44;20.47;;;11.80;;
5612;SDS011;63463;53.586;9.928;2023-11-21T07:24:10;21.13;;;12.67;;
5612;SDS011;63463;53.586;9.928;2023-11-21T07:26:36;17.67;;;11.60;;
5612;SDS011;63463;53.586;9.928;2023-11-21T07:29:02;26.20;;;12.30;;
5612;SDS011;63463;53.586;9.928;2023-11-21T07:31:29;20.80;;;12.43;;
5612;SDS011;63463;53.586;9.928;2023-11-21T07:33:55;16.60;;;11.60;;
5612;SDS011;63463;53.586;9.928;2023-11-21T07:36:24;21.80;;;12.13;;
5612;SDS011;63463;53.586;9.928;2023-11-21T07:38:50;18.70;;;11.83;;
5612;SDS011;63463;53.586;9.928;2023-11-21T07:41:17;21.03;;;12.23;;
5612;SDS011;63463;53.586;9.928;2023-11-21T07:43:43;18.93;;;12.17;;
5612;SDS011;63463;53.586;9.928;2023-11-21T07:46:09;18.00;;;10.80;;
5612;SDS011;63463;53.586;9.928;2023-11-21T07:48:37;17.47;;;10.90;;
5612;SDS011;63463;53.586;9.928;2023-11-21T07:54:14;15.77;;;10.13;;
5612;SDS011;63463;53.586;9.928;2023-11-21T07:56:40;16.80;;;10.70;;
5612;SDS011;63463;53.586;9.928;2023-11-21T07:59:07;20.80;;;12.10;;
5612;SDS011;63463;53.586;9.928;2023-11-21T08:01:33;16.00;;;10.60;;
5612;SDS011;63463;53.586;9.928;2023-11-21T08:03:59;14.27;;;10.07;;
5612;SDS011;63463;53.586;9.928;2023-11-21T08:06:28;14.17;;;10.47;;
5612;SDS011;63463;53.586;9.928;2023-11-21T08:08:55;16.93;;;10.50;;
5612;SDS011;63463;53.586;9.928;2023-11-21T08:11:22;17.50;;;10.70;;
5612;SDS011;63463;53.586;9.928;2023-11-21T08:16:51;17.80;;;10.80;;
5612;SDS011;63463;53.586;9.928;2023-11-21T08:19:17;19.93;;;10.23;;
5612;SDS011;63463;53.586;9.928;2023-11-21T08:21:43;12.17;;;9.87;;
5612;SDS011;63463;53.586;9.928;2023-11-21T08:24:11;23.17;;;9.70;;
5612;SDS011;63463;53.586;9.928;2023-11-21T08:26:37;15.10;;;9.10;;
5612;SDS011;63463;53.586;9.928;2023-11-21T08:29:03;16.47;;;9.90;;
5612;SDS011;63463;53.586;9.928;2023-11-21T08:31:31;14.93;;;9.77;;
5612;SDS011;63463;53.586;9.928;2023-11-21T08:33:57;13.80;;;8.77;;
5612;SDS011;63463;53.586;9.928;2023-11-21T08:36:24;10.20;;;8.63;;
5612;SDS011;63463;53.586;9.928;2023-11-21T08:38:50;13.53;;;9.53;;
5612;SDS011;63463;53.586;9.928;2023-11-21T08:41:19;12.50;;;8.60;;
5612;SDS011;63463;53.586;9.928;2023-11-21T08:43:51;12.43;;;8.77;;
5612;SDS011;63463;53.586;9.928;2023-11-21T08:46:18;10.13;;;8.30;;
5612;SDS011;63463;53.586;9.928;2023-11-21T08:48:44;12.10;;;9.03;;
5612;SDS011;63463;53.586;9.928;2023-11-21T08:51:11;13.00;;;8.60;;
5612;SDS011;63463;53.586;9.928;2023-11-21T08:53:37;16.70;;;8.63;;
5612;SDS011;63463;53.586;9.928;2023-11-21T08:56:03;15.07;;;9.67;;
5612;SDS011;63463;53.586;9.928;2023-11-21T08:58:30;13.50;;;9.73;;
5612;SDS011;63463;53.586;9.928;2023-11-21T09:00:57;10.80;;;8.70;;
5612;SDS011;63463;53.586;9.928;2023-11-21T09:03:23;10.37;;;8.83;;
5612;SDS011;63463;53.586;9.928;2023-11-21T09:05:50;18.03;;;9.53;;
5612;SDS011;63463;53.586;9.928;2023-11-21T09:08:16;10.50;;;8.70;;
5612;SDS011;63463;53.586;9.928;2023-11-21T09:10:42;11.27;;;8.63;;
5612;SDS011;63463;53.586;9.928;2023-11-21T09:13:12;13.80;;;9.07;;
5612;SDS011;63463;53.586;9.928;2023-11-21T09:15:38;10.23;;;8.20;;
5612;SDS011;63463;53.586;9.928;2023-11-21T09:18:04;12.00;;;8.63;;
5612;SDS011;63463;53.586;9.928;2023-11-21T09:20:30;15.00;;;7.80;;
5612;SDS011;63463;53.586;9.928;2023-11-21T09:22:57;8.70;;;6.97;;
5612;SDS011;63463;53.586;9.928;2023-11-21T09:25:23;10.60;;;8.37;;
5612;SDS011;63463;53.586;9.928;2023-11-21T09:27:49;8.70;;;7.80;;
5612;SDS011;63463;53.586;9.928;2023-11-21T09:30:15;8.43;;;6.93;;
5612;SDS011;63463;53.586;9.928;2023-11-21T09:32:41;9.53;;;7.60;;
5612;SDS011;63463;53.586;9.928;2023-11-21T09:35:10;12.03;;;8.20;;
5612;SDS011;63463;53.586;9.928;2023-11-21T09:37:36;8.17;;;7.13;;
5612;SDS011;63463;53.586;9.928;2023-11-21T09:40:03;7.77;;;7.10;;
5612;SDS011;63463;53.586;9.928;2023-11-21T09:42:32;9.13;;;6.93;;
5612;SDS011;63463;53.586;9.928;2023-11-21T09:45:14;7.60;;;6.90;;
5612;SDS011;63463;53.586;9.928;2023-11-21T09:47:41;13.03;;;7.20;;
5612;SDS011;63463;53.586;9.928;2023-11-21T09:50:08;7.70;;;6.03;;
5612;SDS011;63463;53.586;9.928;2023-11-21T09:52:49;7.13;;;6.43;;
5612;SDS011;63463;53.586;9.928;2023-11-21T09:55:18;8.87;;;6.00;;
5612;SDS011;63463;53.586;9.928;2023-11-21T09:57:46;8.93;;;6.40;;
5612;SDS011;63463;53.586;9.928;2023-11-21T10:00:14;10.60;;;6.80;;
5612;SDS011;63463;53.586;9.928;2023-11-21T10:02:42;6.93;;;6.33;;
5612;SDS011;63463;53.586;9.928;2023-11-21T10:05:09;7.57;;;6.90;;
5612;SDS011;63463;53.586;9.928;2023-11-21T10:07:36;7.80;;;6.70;;
5612;SDS011;63463;53.586;9.928;2023-11-21T10:10:06;6.67;;;6.17;;
5612;SDS011;63463;53.586;9.928;2023-11-21T10:12:34;11.37;;;5.83;;
5612;SDS011;63463;53.586;9.928;2023-11-21T10:15:00;20.53;;;7.07;;
5612;SDS011;63463;53.586;9.928;2023-11-21T10:17:49;7.40;;;6.47;;
5612;SDS011;63463;53.586;9.928;2023-11-21T10:20:18;6.73;;;6.13;;
5612;SDS011;63463;53.586;9.928;2023-11-21T10:22:44;6.90;;;6.30;;
5612;SDS011;63463;53.586;9.928;2023-11-21T10:25:10;6.00;;;5.50;;
5612;SDS011;63463;53.586;9.928;2023-11-21T10:27:39;11.10;;;6.20;;
5612;SDS011;63463;53.586;9.928;2023-11-21T10:30:06;7.17;;;6.03;;
5612;SDS011;63463;53.586;9.928;2023-11-21T10:32:39;6.23;;;5.50;;
5612;SDS011;63463;53.586;9.928;2023-11-21T10:35:06;5.97;;;5.37;;
5612;SDS011;63463;53.586;9.928;2023-11-21T10:37:35;6.23;;;4.93;;
5612;SDS011;63463;53.586;9.928;2023-11-21T10:40:04;7.13;;;6.23;;
5612;SDS011;63463;53.586;9.928;2023-11-21T10:42:31;6.00;;;5.60;;
5612;SDS011;63463;53.586;9.928;2023-11-21T10:44:57;5.73;;;5.33;;
5612;SDS011;63463;53.586;9.928;2023-11-21T10:47:23;6.63;;;5.10;;
5612;SDS011;63463;53.586;9.928;2023-11-21T10:49:51;5.80;;;5.20;;
5612;SDS011;63463;53.586;9.928;2023-11-21T10:52:20;5.93;;;5.37;;
5612;SDS011;63463;53.586;9.928;2023-11-21T10:54:46;6.20;;;5.70;;
5612;SDS011;63463;53.586;9.928;2023-11-21T10:57:13;5.47;;;5.07;;
5612;SDS011;63463;53.586;9.928;2023-11-21T10:59:43;12.43;;;5.10;;
5612;SDS011;63463;53.586;9.928;2023-11-21T11:02:18;5.77;;;5.40;;
5612;SDS011;63463;53.586;9.928;2023-11-21T11:04:48;5.33;;;4.97;;
5612;SDS011;63463;53.586;9.928;2023-11-21T11:07:14;6.03;;;5.53;;
5612;SDS011;63463;53.586;9.928;2023-11-21T11:09:43;7.10;;;6.03;;
5612;SDS011;63463;53.586;9.928;2023-11-21T11:12:10;5.83;;;5.43;;
5612;SDS011;63463;53.586;9.928;2023-11-21T11:14:36;5.70;;;5.23;;
5612;SDS011;63463;53.586;9.928;2023-11-21T11:17:02;6.13;;;5.53;;
5612;SDS011;63463;53.586;9.928;2023-11-21T11:19:30;6.40;;;5.90;;
5612;SDS011;63463;53.586;9.928;2023-11-21T11:24:44;6.13;;;5.63;;
5612;SDS011;63463;53.586;9.928;2023-11-21T11:30:15;5.90;;;5.40;;
5612;SDS011;63463;53.586;9.928;2023-11-21T11:35:30;5.70;;;5.30;;
5612;SDS011;63463;53.586;9.928;2023-11-21T11:37:59;11.40;;;5.57;;
5612;SDS011;63463;53.586;9.928;2023-11-21T11:40:33;6.10;;;5.60;;
5612;SDS011;63463;53.586;9.928;2023-11-21T11:43:05;9.10;;;5.80;;
5612;SDS011;63463;53.586;9.928;2023-11-21T11:45:32;9.10;;;6.30;;
5612;SDS011;63463;53.586;9.928;2023-11-21T11:47:59;5.80;;;5.30;;
5612;SDS011;63463;53.586;9.928;2023-11-21T11:50:26;6.43;;;5.27;;
5612;SDS011;63463;53.586;9.928;2023-11-21T11:52:52;5.73;;;5.33;;
5612;SDS011;63463;53.586;9.928;2023-11-21T11:55:23;5.90;;;5.30;;
5612;SDS011;63463;53.586;9.928;2023-11-21T11:57:53;6.57;;;5.20;;
5612;SDS011;63463;53.586;9.928;2023-11-21T12:02:54;5.67;;;5.27;;
5612;SDS011;63463;53.586;9.928;2023-11-21T12:05:24;5.43;;;5.00;;
5612;SDS011;63463;53.586;9.928;2023-11-21T12:07:59;6.27;;;5.63;;
5612;SDS011;63463;53.586;9.928;2023-11-21T12:10:29;6.63;;;5.57;;
5612;SDS011;63463;53.586;9.928;2023-11-21T12:12:56;6.47;;;5.47;;
5612;SDS011;63463;53.586;9.928;2023-11-21T12:15:23;6.40;;;5.60;;
5612;SDS011;63463;53.586;9.928;2023-11-21T12:17:50;6.17;;;5.77;;
5612;SDS011;63463;53.586;9.928;2023-11-21T12:20:20;4.83;;;4.63;;
5612;SDS011;63463;53.586;9.928;2023-11-21T12:22:50;5.90;;;5.50;;
5612;SDS011;63463;53.586;9.928;2023-11-21T12:25:17;5.93;;;5.53;;
5612;SDS011;63463;53.586;9.928;2023-11-21T12:27:44;6.47;;;5.87;;
5612;SDS011;63463;53.586;9.928;2023-11-21T12:30:10;5.87;;;5.47;;
5612;SDS011;63463;53.586;9.928;2023-11-21T12:32:42;5.50;;;5.00;;
5612;SDS011;63463;53.586;9.928;2023-11-21T12:35:11;5.50;;;5.10;;
5612;SDS011;63463;53.586;9.928;2023-11-21T12:37:38;9.73;;;5.80;;
5612;SDS011;63463;53.586;9.928;2023-11-21T12:40:07;6.63;;;6.03;;
5612;SDS011;63463;53.586;9.928;2023-11-21T12:42:36;6.00;;;5.60;;
5612;SDS011;63463;53.586;9.928;2023-11-21T12:45:35;13.30;;;6.40;;
5612;SDS011;63463;53.586;9.928;2023-11-21T12:47:59;5.30;;;5.10;;
5612;SDS011;63463;53.586;9.928;2023-11-21T12:50:28;6.20;;;5.70;;
5612;SDS011;63463;53.586;9.928;2023-11-21T12:53:29;5.70;;;5.30;;
5612;SDS011;63463;53.586;9.928;2023-11-21T12:55:48;6.77;;;5.90;;
5612;SDS011;63463;53.586;9.928;2023-11-21T12:58:15;6.00;;;5.50;;
5612;SDS011;63463;53.586;9.928;2023-11-21T13:03:08;7.90;;;6.73;;
5612;SDS011;63463;53.586;9.928;2023-11-21T13:05:38;6.00;;;5.57;;
5612;SDS011;63463;53.586;9.928;2023-11-21T13:08:07;5.93;;;5.53;;
5612;SDS011;63463;53.586;9.928;2023-11-21T13:10:35;5.23;;;4.93;;
5612;SDS011;63463;53.586;9.928;2023-11-21T13:13:02;6.40;;;5.80;;
5612;SDS011;63463;53.586;9.928;2023-11-21T13:15:30;5.57;;;5.17;;
5612;SDS011;63463;53.586;9.928;2023-11-21T13:17:57;6.17;;;5.57;;
5612;SDS011;63463;53.586;9.928;2023-11-21T13:20:24;5.93;;;5.63;;
5612;SDS011;63463;53.586;9.928;2023-11-21T13:22:53;5.70;;;5.30;;
5612;SDS011;63463;53.586;9.928;2023-11-21T13:25:22;5.90;;;5.50;;
5612;SDS011;63463;53.586;9.928;2023-11-21T13:27:48;9.50;;;6.30;;
5612;SDS011;63463;53.586;9.928;2023-11-21T13:30:15;5.93;;;5.43;;
5612;SDS011;63463;53.586;9.928;2023-11-21T13:32:44;5.97;;;5.47;;
5612;SDS011;63463;53.586;9.928;2023-11-21T13:35:16;6.30;;;5.90;;
5612;SDS011;63463;53.586;9.928;2023-11-21T13:37:55;6.60;;;6.00;;
5612;SDS011;63463;53.586;9.928;2023-11-21T13:40:25;6.27;;;5.87;;
5612;SDS011;63463;53.586;9.928;2023-11-21T13:42:55;8.57;;;6.10;;
5612;SDS011;63463;53.586;9.928;2023-11-21T13:45:24;6.40;;;5.90;;
5612;SDS011;63463;53.586;9.928;2023-11-21T13:47:52;6.37;;;5.90;;
5612;SDS011;63463;53.586;9.928;2023-11-21T13:50:30;6.70;;;6.00;;
5612;SDS011;63463;53.586;9.928;2023-11-21T13:53:00;6.63;;;6.03;;
5612;SDS011;63463;53.586;9.928;2023-11-21T13:55:33;6.73;;;6.10;;
5612;SDS011;63463;53.586;9.928;2023-11-21T13:58:01;7.70;;;6.20;;
5612;SDS011;63463;53.586;9.928;2023-11-21T14:00:29;6.00;;;5.70;;
5612;SDS011;63463;53.586;9.928;2023-11-21T14:03:07;7.00;;;6.27;;
5612;SDS011;63463;53.586;9.928;2023-11-21T14:05:42;8.27;;;6.43;;
5612;SDS011;63463;53.586;9.928;2023-11-21T14:08:09;6.50;;;5.90;;
5612;SDS011;63463;53.586;9.928;2023-11-21T14:10:39;6.47;;;5.93;;
5612;SDS011;63463;53.586;9.928;2023-11-21T14:13:07;7.87;;;5.50;;
5612;SDS011;63463;53.586;9.928;2023-11-21T14:15:35;5.83;;;5.43;;
5612;SDS011;63463;53.586;9.928;2023-11-21T14:18:06;6.73;;;6.10;;
5612;SDS011;63463;53.586;9.928;2023-11-21T14:20:35;6.67;;;6.00;;
5612;SDS011;63463;53.586;9.928;2023-11-21T14:23:02;6.90;;;6.20;;
5612;SDS011;63463;53.586;9.928;2023-11-21T14:25:28;6.30;;;5.70;;
5612;SDS011;63463;53.586;9.928;2023-11-21T14:27:54;9.40;;;5.80;;
5612;SDS011;63463;53.586;9.928;2023-11-21T14:30:21;6.17;;;5.67;;
5612;SDS011;63463;53.586;9.928;2023-11-21T14:32:47;8.20;;;6.57;;
5612;SDS011;63463;53.586;9.928;2023-11-21T14:35:15;9.03;;;6.30;;
5612;SDS011;63463;53.586;9.928;2023-11-21T14:37:42;6.10;;;5.70;;
5612;SDS011;63463;53.586;9.928;2023-11-21T14:40:08;5.60;;;5.20;;
5612;SDS011;63463;53.586;9.928;2023-11-21T14:42:35;6.13;;;5.57;;
5612;SDS011;63463;53.586;9.928;2023-11-21T14:45:04;6.50;;;6.07;;
5612;SDS011;63463;53.586;9.928;2023-11-21T14:47:32;6.60;;;6.00;;
5612;SDS011;63463;53.586;9.928;2023-11-21T14:49:59;6.23;;;4.93;;
5612;SDS011;63463;53.586;9.928;2023-11-21T14:52:31;5.17;;;4.97;;
5612;SDS011;63463;53.586;9.928;2023-11-21T14:54:59;5.47;;;5.17;;
5612;SDS011;63463;53.586;9.928;2023-11-21T14:58:00;5.53;;;5.13;;
5612;SDS011;63463;53.586;9.928;2023-11-21T15:00:29;5.90;;;5.50;;
5612;SDS011;63463;53.586;9.928;2023-11-21T15:03:01;5.97;;;5.50;;
5612;SDS011;63463;53.586;9.928;2023-11-21T15:05:27;5.33;;;4.93;;
5612;SDS011;63463;53.586;9.928;2023-11-21T15:07:54;4.93;;;4.60;;
5612;SDS011;63463;53.586;9.928;2023-11-21T15:10:22;5.27;;;4.97;;
5612;SDS011;63463;53.586;9.928;2023-11-21T15:13:03;6.10;;;5.60;;